Time;durP1;ratioP1;P1;durP2;ratioP2;P2;SDS_P1;SDS_P2;PMS_P1;PMS_P2;Temp;Humidity;BMP_temperature;BMP_pressure;BME280_temperature;BME280_humidity;BME280_pressure;Samples;Min_cycle;Max_cycle;Signal;HPM_P1;HPM_P2
2024/01/17 00:01:10;;;;;;;4.57;0.63;;;;;;;6.31;91.71;95282.13;5125984;27;20439;-55
2024/01/17 00:03:38;;;;;;;1.50;1.07;;;;;;;6.35;92.89;95280.59;5130666;27;20492;-55
2024/01/17 00:06:07;;;;;;;0.80;0.50;;;;;;;5.98;92.74;95248.00;5135220;27;20546;-55
2024/01/17 00:08:36;;;;;;;1.87;1.77;;;;;;;5.91;97.98;95278.94;5134639;27;20439;-55
2024/01/17 00:11:05;;;;;;;11.67;1.60;;;;;;;5.72;100.00;95272.28;5134726;27;20529;-55
2024/01/17 00:13:34;;;;;;;3.97;3.70;;;;;;;5.99;98.90;95270.66;5121409;27;20495;-55
2024/01/17 00:16:04;;;;;;;2.40;2.03;;;;;;;5.90;98.04;95268.63;5134945;27;20462;-55
2024/01/17 00:18:33;;;;;;;5.23;1.90;;;;;;;5.75;100.00;95269.19;5133642;27;20445;-55
2024/01/17 00:21:02;;;;;;;1.43;1.33;;;;;;;6.08;98.18;95265.75;5134376;27;20476;-55
2024/01/17 00:23:31;;;;;;;1.60;1.50;;;;;;;5.93;99.68;95276.84;5134038;27;20466;-54
2024/01/17 00:26:00;;;;;;;4.10;0.93;;;;;;;5.52;100.00;95258.81;5134248;27;20480;-54
2024/01/17 00:28:28;;;;;;;1.20;1.10;;;;;;;5.69;100.00;95270.16;5133736;27;20442;-55
2024/01/17 00:30:57;;;;;;;0.60;0.60;;;;;;;5.72;100.00;95277.53;5133597;27;20438;-55
2024/01/17 00:33:27;;;;;;;3.50;1.60;;;;;;;5.68;100.00;95273.81;5134838;27;20426;-55
2024/01/17 00:35:55;;;;;;;3.33;0.87;;;;;;;5.78;100.00;95284.50;5134757;27;20438;-54
2024/01/17 00:38:24;;;;;;;7.97;1.20;;;;;;;6.07;100.00;95286.00;5134973;27;20476;-54
2024/01/17 00:40:53;;;;;;;0.87;0.87;;;;;;;5.98;100.00;95284.81;5134259;27;20435;-55
2024/01/17 00:43:21;;;;;;;1.57;1.30;;;;;;;6.00;100.00;95301.16;5134241;27;20438;-55
2024/01/17 00:45:50;;;;;;;1.00;0.70;;;;;;;6.09;100.00;95301.56;5133880;27;20522;-55
2024/01/17 00:48:19;;;;;;;1.67;1.10;;;;;;;6.13;100.00;95294.75;5135194;27;20434;-56
2024/01/17 00:50:49;;;;;;;0.40;0.40;;;;;;;6.26;99.55;95289.97;5134657;27;20946;-55
2024/01/17 00:53:18;;;;;;;9.73;0.87;;;;;;;6.35;98.74;95295.59;5133577;27;20569;-55
2024/01/17 00:55:46;;;;;;;0.63;0.53;;;;;;;6.46;96.95;95299.16;5134068;27;20445;-56
2024/01/17 00:58:15;;;;;;;1.47;1.33;;;;;;;6.54;94.43;95298.75;5134101;27;20938;-55
2024/01/17 01:00:44;;;;;;;1.13;1.10;;;;;;;6.49;94.30;95290.78;5134202;27;20463;-56
2024/01/17 01:03:15;;;;;;;1.97;1.37;;;;;;;6.51;93.92;95307.13;5133646;27;20438;-56
2024/01/17 01:05:46;;;;;;;0.50;0.50;;;;;;;6.58;93.34;95299.88;5133416;27;20474;-56
2024/01/17 01:08:16;;;;;;;0.77;0.77;;;;;;;6.61;92.50;95291.44;5133725;27;20468;-55
2024/01/17 01:10:45;;;;;;;1.80;1.43;;;;;;;6.44;92.90;95298.63;5132722;27;20466;-55
2024/01/17 01:13:13;;;;;;;0.90;0.90;;;;;;;6.16;95.26;95262.72;5133647;27;20438;-55
2024/01/17 01:15:42;;;;;;;1.23;0.77;;;;;;;6.53;95.03;95291.91;5133742;27;20435;-56
2024/01/17 01:18:11;;;;;;;3.07;1.13;;;;;;;6.46;95.11;95296.53;5133311;27;20823;-55
2024/01/17 01:20:40;;;;;;;1.57;0.67;;;;;;;6.71;93.61;95296.84;5133957;27;20442;-55
2024/01/17 01:23:09;;;;;;;2.57;1.23;;;;;;;6.62;95.15;95287.78;5132542;27;20530;-55
2024/01/17 01:25:39;;;;;;;1.63;1.53;;;;;;;6.52;94.63;95263.97;5133948;27;20510;-55
2024/01/17 01:28:08;;;;;;;1.60;1.50;;;;;;;6.08;96.26;95234.19;5133604;27;20426;-56
2024/01/17 01:30:37;;;;;;;5.40;2.57;;;;;;;6.35;97.03;95301.66;5133232;27;20438;-55
2024/01/17 01:33:06;;;;;;;1.43;1.33;;;;;;;6.49;96.37;95285.50;5132863;27;20434;-55
2024/01/17 01:35:34;;;;;;;1.77;1.43;;;;;;;6.67;95.72;95279.97;5132790;27;20441;-55
2024/01/17 01:38:03;;;;;;;0.80;0.80;;;;;;;6.74;94.26;95286.63;5132742;27;20434;-55
2024/01/17 01:40:32;;;;;;;1.33;1.00;;;;;;;6.72;93.43;95280.00;5133026;27;20438;-55
2024/01/17 01:43:17;;;;;;;13.23;1.13;;;;;;;6.81;92.99;95268.78;5132894;27;20492;-55
2024/01/17 01:45:55;;;;;;;0.77;0.77;;;;;;;6.88;92.47;95277.28;5133029;27;20470;-56
2024/01/17 01:48:23;;;;;;;0.73;0.73;;;;;;;6.91;91.83;95273.38;5132736;27;20486;-56
2024/01/17 01:50:53;;;;;;;1.20;1.20;;;;;;;7.03;90.28;95271.41;5132500;27;20434;-56
2024/01/17 01:53:22;;;;;;;1.87;0.77;;;;;;;7.10;89.31;95277.28;5133114;27;20972;-56
2024/01/17 01:55:52;;;;;;;2.50;0.63;;;;;;;6.62;91.01;95233.28;5133153;27;20462;-56
2024/01/17 01:58:23;;;;;;;1.73;1.67;;;;;;;6.95;90.66;95279.75;5132855;27;20437;-55
2024/01/17 02:00:53;;;;;;;2.03;1.90;;;;;;;6.87;91.32;95277.56;5133132;27;20434;-55
2024/01/17 02:03:24;;;;;;;0.47;0.37;;;;;;;7.01;90.22;95279.56;5132525;27;20438;-55
2024/01/17 02:05:54;;;;;;;0.83;0.80;;;;;;;6.95;91.16;95282.38;5105541;27;20549;-55
2024/01/17 02:08:22;;;;;;;1.20;1.10;;;;;;;6.97;90.49;95282.94;5132802;27;20449;-56
2024/01/17 02:10:51;;;;;;;1.70;1.60;;;;;;;6.71;90.53;95244.16;5132411;27;20516;-55
2024/01/17 02:13:20;;;;;;;1.47;1.40;;;;;;;6.87;89.67;95267.03;5132597;27;20442;-55
2024/01/17 02:15:50;;;;;;;1.93;1.43;;;;;;;6.97;90.55;95278.47;5132452;27;20981;-56
2024/01/17 02:18:20;;;;;;;1.27;0.57;;;;;;;7.00;88.83;95277.97;5132322;27;20477;-56
2024/01/17 02:20:49;;;;;;;1.13;1.03;;;;;;;7.02;88.72;95288.25;5132569;27;20442;-55
2024/01/17 02:23:25;;;;;;;1.73;1.63;;;;;;;6.95;89.54;95277.13;5132346;27;20495;-55
2024/01/17 02:25:56;;;;;;;1.40;1.33;;;;;;;7.03;89.32;95280.09;5132376;27;20961;-56
2024/01/17 02:28:27;;;;;;;1.90;1.17;;;;;;;7.05;89.42;95290.41;5132197;27;20466;-55
2024/01/17 02:30:56;;;;;;;1.13;1.07;;;;;;;7.05;89.48;95285.13;5132540;27;20445;-56
2024/01/17 02:33:25;;;;;;;1.67;1.53;;;;;;;7.11;89.27;95281.50;5132849;27;20439;-56
2024/01/17 02:35:54;;;;;;;1.37;1.27;;;;;;;6.65;89.24;95203.84;5132651;27;20491;-56
2024/01/17 02:38:22;;;;;;;0.93;0.90;;;;;;;7.06;89.37;95264.84;5132683;27;20434;-56
2024/01/17 02:40:51;;;;;;;0.87;0.87;;;;;;;7.17;88.68;95272.59;5132695;27;20487;-56
2024/01/17 02:43:21;;;;;;;20.43;1.57;;;;;;;7.16;88.99;95268.38;5132673;27;20449;-56
2024/01/17 02:45:49;;;;;;;1.03;0.90;;;;;;;6.91;88.90;95216.22;5132037;27;20529;-56
2024/01/17 02:48:18;;;;;;;2.00;1.90;;;;;;;7.14;88.39;95261.75;5132760;27;20434;-56
2024/01/17 02:50:47;;;;;;;1.07;1.03;;;;;;;7.20;87.79;95264.19;5131368;27;20434;-56
2024/01/17 02:53:16;;;;;;;2.40;1.47;;;;;;;7.20;87.38;95258.94;5132248;28;20458;-57
2024/01/17 02:55:45;;;;;;;1.07;1.07;;;;;;;6.52;89.23;95190.25;5129690;27;20771;-56
2024/01/17 02:58:13;;;;;;;1.57;1.23;;;;;;;6.45;91.70;95258.09;5121228;28;21009;-56
2024/01/17 03:00:43;;;;;;;2.03;1.37;;;;;;;6.30;92.32;95196.31;5131998;28;20438;-56
2024/01/17 03:03:12;;;;;;;26.53;1.30;;;;;;;6.74;92.13;95257.66;5132202;28;20438;-56
2024/01/17 03:05:41;;;;;;;1.03;1.03;;;;;;;6.76;93.46;95254.75;5131652;28;20442;-56
2024/01/17 03:08:10;;;;;;;2.20;1.57;;;;;;;6.81;91.78;95241.66;5132431;28;20506;-56
2024/01/17 03:10:38;;;;;;;5.20;2.00;;;;;;;7.02;90.04;95249.53;5132258;28;20450;-56
2024/01/17 03:13:08;;;;;;;4.13;2.13;;;;;;;7.00;90.73;95256.09;5132120;27;20453;-56
2024/01/17 03:15:36;;;;;;;1.73;1.63;;;;;;;6.85;90.76;95251.47;5131615;28;20519;-56
2024/01/17 03:18:13;;;;;;;1.07;1.07;;;;;;;7.03;90.20;95260.88;5132131;27;20445;-56
2024/01/17 03:20:42;;;;;;;0.90;0.80;;;;;;;7.01;90.75;95252.41;5132455;28;20434;-56
2024/01/17 03:23:10;;;;;;;5.77;2.20;;;;;;;7.02;90.22;95261.91;5131634;28;20507;-56
2024/01/17 03:25:39;;;;;;;1.53;1.23;;;;;;;7.01;90.19;95253.19;5131321;27;20491;-56
2024/01/17 03:28:08;;;;;;;2.03;1.20;;;;;;;6.85;90.04;95258.56;5131018;27;20863;-56
2024/01/17 03:30:36;;;;;;;2.53;1.40;;;;;;;6.86;90.45;95244.34;5131351;28;20969;-56
2024/01/17 03:33:07;;;;;;;1.73;1.63;;;;;;;6.51;91.51;95204.44;5132863;27;20788;-56
2024/01/17 03:35:35;;;;;;;1.00;1.00;;;;;;;6.90;92.27;95267.34;5136144;27;20449;-56
2024/01/17 03:38:04;;;;;;;0.90;0.60;;;;;;;6.79;91.52;95264.81;5134673;27;20462;-56
2024/01/17 03:40:33;;;;;;;0.70;0.60;;;;;;;6.83;90.95;95265.94;5134784;27;20448;-56
2024/01/17 03:43:01;;;;;;;0.97;0.67;;;;;;;6.85;90.03;95272.53;5135587;27;20872;-56
2024/01/17 03:45:30;;;;;;;0.50;0.50;;;;;;;6.21;91.66;95205.69;5136048;27;20441;-56
2024/01/17 03:47:58;;;;;;;2.00;1.43;;;;;;;6.80;90.97;95287.50;5135412;27;20473;-56
2024/01/17 03:50:29;;;;;;;0.80;0.80;;;;;;;6.48;90.85;95239.19;5135599;27;20898;-57
2024/01/17 03:52:57;;;;;;;1.27;0.50;;;;;;;6.72;91.58;95293.19;5108541;27;20470;-56
2024/01/17 03:55:26;;;;;;;10.07;2.50;;;;;;;5.89;93.36;95217.91;5135460;27;20442;-56
2024/01/17 03:57:55;;;;;;;1.60;0.97;;;;;;;6.48;94.50;95289.97;5122922;27;20442;-56
2024/01/17 04:00:24;;;;;;;0.90;0.90;;;;;;;6.44;95.35;95282.81;5135042;27;20977;-56
2024/01/17 04:02:54;;;;;;;0.60;0.60;;;;;;;6.75;92.36;95293.50;5135335;27;20450;-56
2024/01/17 04:05:22;;;;;;;0.87;0.87;;;;;;;6.80;90.68;95292.75;5134624;27;20452;-56
2024/01/17 04:07:52;;;;;;;3.57;1.77;;;;;;;6.68;90.54;95289.47;5135359;27;20568;-56
2024/01/17 04:10:21;;;;;;;0.93;0.93;;;;;;;6.80;90.67;95284.84;5134964;27;20446;-56
2024/01/17 04:12:49;;;;;;;0.93;0.90;;;;;;;6.79;90.97;95286.69;5135590;27;20430;-56
2024/01/17 04:15:18;;;;;;;1.00;1.00;;;;;;;6.84;90.66;95289.38;5134484;27;21008;-56
2024/01/17 04:17:48;;;;;;;1.00;0.90;;;;;;;6.83;91.13;95284.38;5135174;27;20496;-56
2024/01/17 04:20:16;;;;;;;0.90;0.90;;;;;;;6.85;90.95;95295.44;5134054;27;20498;-56
2024/01/17 04:22:45;;;;;;;2.60;1.93;;;;;;;6.94;89.94;95292.13;5134853;27;20458;-56
2024/01/17 04:25:15;;;;;;;13.10;1.27;;;;;;;7.03;90.22;95301.16;5134825;27;20515;-56
2024/01/17 04:27:44;;;;;;;0.80;0.80;;;;;;;6.57;93.81;95317.50;5134100;27;20458;-57
2024/01/17 04:30:14;;;;;;;3.40;3.20;;;;;;;6.63;93.16;95318.38;5133486;27;20434;-56
2024/01/17 04:32:42;;;;;;;0.83;0.83;;;;;;;6.35;95.19;95306.91;5132765;27;20525;-57
2024/01/17 04:35:11;;;;;;;0.83;0.83;;;;;;;6.51;97.07;95325.56;5134849;27;20461;-55
2024/01/17 04:37:40;;;;;;;1.70;1.43;;;;;;;6.37;95.70;95333.78;5133774;27;20942;-56
2024/01/17 04:40:10;;;;;;;8.73;2.07;;;;;;;6.31;98.16;95334.78;5134626;27;20435;-55
2024/01/17 04:42:40;;;;;;;1.00;1.00;;;;;;;6.48;97.03;95328.69;5134347;27;20995;-56
2024/01/17 04:45:10;;;;;;;2.00;1.73;;;;;;;6.48;96.15;95302.38;5133079;27;20435;-56
2024/01/17 04:47:39;;;;;;;1.80;1.33;;;;;;;6.81;94.00;95331.22;5134549;27;20502;-56
2024/01/17 04:50:08;;;;;;;3.97;2.33;;;;;;;6.44;91.27;95241.50;5134218;27;20973;-56
2024/01/17 04:52:38;;;;;;;5.40;2.47;;;;;;;5.65;92.06;95142.84;5133728;27;20463;-56
2024/01/17 04:55:08;;;;;;;1.07;1.07;;;;;;;6.84;92.26;95330.72;5134143;27;20470;-55
2024/01/17 04:57:37;;;;;;;2.50;2.37;;;;;;;6.36;94.45;95308.53;5133698;27;20446;-56
2024/01/17 05:00:08;;;;;;;2.80;2.20;;;;;;;6.58;95.46;95328.84;5133871;27;20442;-57
2024/01/17 05:02:37;;;;;;;2.00;1.53;;;;;;;6.78;92.82;95331.72;5134132;27;20449;-57
2024/01/17 05:05:07;;;;;;;1.40;1.40;;;;;;;6.67;94.18;95343.16;5133740;27;20521;-56
2024/01/17 05:07:35;;;;;;;3.63;3.20;;;;;;;6.83;94.12;95339.69;5133780;27;20863;-56
2024/01/17 05:10:05;;;;;;;1.77;1.67;;;;;;;6.60;94.86;95332.00;5133521;27;20962;-56
2024/01/17 05:12:34;;;;;;;1.40;1.30;;;;;;;6.82;95.60;95344.16;5133331;27;20965;-55
2024/01/17 05:15:04;;;;;;;8.00;2.10;;;;;;;6.96;92.03;95340.09;5133052;27;20453;-57
2024/01/17 05:17:34;;;;;;;1.90;1.63;;;;;;;7.18;90.37;95342.72;5133959;27;20475;-55
2024/01/17 05:20:03;;;;;;;1.40;1.30;;;;;;;7.02;91.58;95346.22;5133951;27;20800;-56
2024/01/17 05:22:31;;;;;;;3.37;2.43;;;;;;;6.96;91.76;95342.72;5133671;27;20431;-56
2024/01/17 05:25:00;;;;;;;1.60;1.50;;;;;;;6.97;90.39;95348.81;5133938;27;20952;-56
2024/01/17 05:27:29;;;;;;;1.30;1.13;;;;;;;6.35;90.59;95269.28;5122031;27;20521;-56
2024/01/17 05:29:57;;;;;;;1.67;1.57;;;;;;;6.97;89.62;95364.63;5131954;27;20513;-56
2024/01/17 05:32:26;;;;;;;1.37;1.27;;;;;;;6.91;89.10;95355.03;5133435;27;20471;-57
2024/01/17 05:34:56;;;;;;;1.70;1.00;;;;;;;6.91;89.14;95341.88;5132102;27;20471;-56
2024/01/17 05:37:25;;;;;;;1.03;1.03;;;;;;;6.87;90.29;95354.75;5132509;27;20453;-57
2024/01/17 05:39:53;;;;;;;1.30;0.77;;;;;;;6.95;89.13;95340.34;5112791;27;20439;-56
2024/01/17 05:42:22;;;;;;;1.10;1.10;;;;;;;7.22;87.91;95354.38;5133001;27;20435;-56
2024/01/17 05:44:51;;;;;;;1.60;1.60;;;;;;;6.92;86.96;95320.56;5133166;27;20442;-56
2024/01/17 05:47:20;;;;;;;1.37;0.80;;;;;;;7.20;86.37;95358.28;5133039;27;20442;-56
2024/01/17 05:49:48;;;;;;;1.37;1.27;;;;;;;7.07;87.66;95372.63;5133379;27;20602;-56
2024/01/17 05:52:18;;;;;;;1.13;1.00;;;;;;;6.74;90.12;95351.66;5132565;27;20843;-56
2024/01/17 05:54:47;;;;;;;1.70;1.33;;;;;;;6.68;91.63;95348.16;5132827;27;20442;-56
2024/01/17 05:57:16;;;;;;;1.00;1.00;;;;;;;6.95;90.59;95374.59;5132565;27;20514;-56
2024/01/17 05:59:45;;;;;;;2.30;1.10;;;;;;;6.95;90.00;95377.25;5133039;27;20430;-55
2024/01/17 06:02:13;;;;;;;1.93;1.73;;;;;;;6.80;91.85;95372.59;5132675;27;20447;-56
2024/01/17 06:04:42;;;;;;;1.30;1.20;;;;;;;6.98;89.54;95377.53;5132863;27;20435;-56
2024/01/17 06:07:10;;;;;;;1.47;1.37;;;;;;;6.95;90.06;95374.59;5132672;27;20471;-55
2024/01/17 06:09:43;;;;;;;1.67;1.03;;;;;;;6.95;90.09;95382.50;5133041;27;20481;-54
2024/01/17 06:12:12;;;;;;;2.03;0.70;;;;;;;7.03;89.17;95374.97;5132965;27;20521;-56
2024/01/17 06:14:40;;;;;;;6.03;1.13;;;;;;;7.01;90.70;95378.88;5132630;27;20470;-56
2024/01/17 06:17:09;;;;;;;2.37;2.03;;;;;;;6.74;90.42;95367.47;5133004;27;20487;-56
2024/01/17 06:19:38;;;;;;;0.93;0.93;;;;;;;6.91;89.69;95391.94;5132935;27;20961;-57
2024/01/17 06:22:07;;;;;;;1.00;0.90;;;;;;;7.08;89.13;95397.97;5105698;27;20450;-56
2024/01/17 06:24:35;;;;;;;1.57;1.50;;;;;;;6.64;89.96;95335.75;5132230;27;20478;-55
2024/01/17 06:27:05;;;;;;;0.57;0.57;;;;;;;6.97;87.74;95393.59;5132528;27;20445;-56
2024/01/17 06:29:34;;;;;;;1.17;1.17;;;;;;;7.00;88.39;95391.28;5132102;27;20477;-56
2024/01/17 06:32:03;;;;;;;0.93;0.93;;;;;;;7.14;88.05;95396.16;5132830;27;21014;-55
2024/01/17 06:34:32;;;;;;;0.60;0.57;;;;;;;7.10;90.45;95395.88;5131890;27;20438;-55
2024/01/17 06:37:05;;;;;;;0.90;0.80;;;;;;;7.18;87.79;95395.44;5133229;27;20495;-55
2024/01/17 06:39:35;;;;;;;1.93;1.73;;;;;;;7.27;87.57;95404.50;5132824;27;20431;-55
2024/01/17 06:42:05;;;;;;;0.80;0.80;;;;;;;7.31;87.30;95410.09;5132448;27;20445;-55
2024/01/17 06:44:34;;;;;;;2.83;2.73;;;;;;;7.32;86.79;95416.94;5133024;27;20498;-56
2024/01/17 06:47:03;;;;;;;4.63;4.37;;;;;;;7.21;87.46;95412.63;5119145;28;20439;-55
2024/01/17 06:49:32;;;;;;;2.40;2.20;;;;;;;7.36;86.71;95416.19;5132182;27;20962;-55
2024/01/17 06:52:00;;;;;;;2.60;2.27;;;;;;;7.12;86.59;95371.91;5131688;28;20439;-56
2024/01/17 06:54:31;;;;;;;4.50;2.97;;;;;;;7.43;86.12;95406.28;5132081;27;20946;-55
2024/01/17 06:57:00;;;;;;;2.43;2.33;;;;;;;7.58;83.62;95410.91;5131376;27;20442;-55
2024/01/17 06:59:29;;;;;;;1.17;1.07;;;;;;;7.65;84.05;95404.41;5131851;27;20525;-55
2024/01/17 07:01:58;;;;;;;3.07;2.50;;;;;;;7.64;83.12;95409.91;5131072;28;20443;-55
2024/01/17 07:04:27;;;;;;;6.67;3.60;;;;;;;7.63;84.37;95413.63;5131723;28;20446;-55
2024/01/17 07:06:55;;;;;;;6.20;3.07;;;;;;;7.63;84.31;95401.22;5132929;27;20525;-55
2024/01/17 07:09:24;;;;;;;2.80;2.60;;;;;;;7.36;83.39;95342.38;5136290;27;20480;-55
2024/01/17 07:11:52;;;;;;;3.03;2.83;;;;;;;7.80;84.13;95421.41;5135841;27;20920;-56
2024/01/17 07:14:21;;;;;;;12.80;3.87;;;;;;;7.44;84.65;95425.50;5135990;27;20499;-54
2024/01/17 07:16:51;;;;;;;6.50;4.37;;;;;;;7.44;85.17;95405.22;5136256;27;20430;-55
2024/01/17 07:19:20;;;;;;;2.77;2.57;;;;;;;7.88;84.73;95442.09;5135684;27;20446;-56
2024/01/17 07:21:48;;;;;;;3.73;2.83;;;;;;;7.97;83.43;95441.38;5135633;27;20966;-55
2024/01/17 07:24:17;;;;;;;5.33;4.17;;;;;;;7.65;85.37;95432.63;5135866;27;20574;-56
2024/01/17 07:26:46;;;;;;;4.93;2.73;;;;;;;7.56;86.77;95449.94;5135689;27;20434;-57
2024/01/17 07:29:14;;;;;;;13.93;5.47;;;;;;;7.10;86.65;95361.63;5135675;27;21081;-57
2024/01/17 07:31:43;;;;;;;7.50;6.30;;;;;;;7.75;86.46;95437.19;5135256;27;20438;-56
2024/01/17 07:34:13;;;;;;;2.30;2.20;;;;;;;7.81;86.35;95441.50;5135779;27;20484;-56
2024/01/17 07:36:42;;;;;;;3.90;3.07;;;;;;;8.05;85.01;95430.38;5135740;27;20513;-56
2024/01/17 07:39:14;;;;;;;4.97;4.67;;;;;;;8.25;83.50;95433.19;5135225;27;20449;-56
2024/01/17 07:41:43;;;;;;;8.23;4.03;;;;;;;8.05;83.97;95408.47;5135815;27;20484;-57
2024/01/17 07:44:12;;;;;;;2.83;2.63;;;;;;;8.05;85.16;95429.56;5133441;27;20858;-56
2024/01/17 07:46:40;;;;;;;22.87;3.87;;;;;;;8.15;85.94;95434.94;5123465;27;20790;-56
2024/01/17 07:49:09;;;;;;;4.40;3.20;;;;;;;8.40;84.49;95440.47;5133550;27;20474;-57
2024/01/17 07:51:39;;;;;;;3.40;3.20;;;;;;;8.58;83.60;95432.16;5128547;27;20461;-57
2024/01/17 07:54:08;;;;;;;6.13;2.40;;;;;;;8.64;83.03;95444.38;5134847;27;20518;-57
2024/01/17 07:56:36;;;;;;;3.80;3.33;;;;;;;8.32;82.59;95374.94;5135356;27;20434;-56
2024/01/17 07:59:05;;;;;;;2.63;1.93;;;;;;;8.86;82.28;95441.59;5135436;27;20518;-56
2024/01/17 08:01:33;;;;;;;4.30;4.00;;;;;;;8.92;81.48;95441.38;5135735;27;20448;-56
2024/01/17 08:04:02;;;;;;;3.30;2.60;;;;;;;9.13;80.07;95441.50;5135094;27;20430;-56
2024/01/17 08:06:31;;;;;;;5.13;3.30;;;;;;;9.19;79.45;95448.38;5135736;27;20482;-57
2024/01/17 08:09:02;;;;;;;16.40;5.83;;;;;;;9.17;80.07;95453.16;5134945;27;20470;-56
2024/01/17 08:11:31;;;;;;;4.30;3.97;;;;;;;9.03;80.03;95449.38;5134882;27;20946;-57
2024/01/17 08:14:00;;;;;;;10.23;7.23;;;;;;;8.99;80.53;95448.28;5135505;27;20815;-56
2024/01/17 08:16:28;;;;;;;7.77;7.10;;;;;;;9.01;80.13;95420.53;5134390;27;20491;-56
2024/01/17 08:18:57;;;;;;;4.33;4.13;;;;;;;8.93;78.82;95363.66;5133966;27;20914;-56
2024/01/17 08:21:26;;;;;;;6.33;5.33;;;;;;;9.71;78.05;95459.75;5134351;27;20492;-56
2024/01/17 08:23:54;;;;;;;5.37;5.00;;;;;;;9.36;78.46;95457.72;5134864;27;20447;-56
2024/01/17 08:26:25;;;;;;;12.97;6.30;;;;;;;8.54;79.87;95415.25;5134810;27;20430;-56
2024/01/17 08:28:53;;;;;;;12.63;5.30;;;;;;;9.10;79.80;95469.25;5135081;27;20439;-56
2024/01/17 08:31:22;;;;;;;6.37;5.87;;;;;;;9.08;79.57;95471.38;5134327;27;21280;-55
2024/01/17 08:33:51;;;;;;;3.93;3.73;;;;;;;9.11;79.21;95447.03;5135119;27;20890;-55
2024/01/17 08:36:29;;;;;;;5.17;3.20;;;;;;;9.62;78.38;95448.06;5134464;27;20433;-56
2024/01/17 08:38:58;;;;;;;3.73;3.40;;;;;;;9.68;76.70;95456.81;5134716;27;20438;-56
2024/01/17 08:41:28;;;;;;;3.80;3.60;;;;;;;9.63;77.63;95449.66;5133778;27;20458;-56
2024/01/17 08:43:57;;;;;;;3.90;3.60;;;;;;;9.85;77.09;95462.69;5134397;27;20969;-55
2024/01/17 08:46:26;;;;;;;4.03;3.83;;;;;;;9.69;76.33;95463.72;5107673;27;20439;-56
2024/01/17 08:48:54;;;;;;;3.30;3.07;;;;;;;9.64;75.50;95467.09;5134334;27;20521;-56
2024/01/17 08:51:24;;;;;;;3.30;2.77;;;;;;;9.83;75.10;95472.75;5134449;27;20477;-55
2024/01/17 08:53:53;;;;;;;2.23;2.13;;;;;;;9.90;75.04;95474.09;5133372;27;20550;-55
2024/01/17 08:56:21;;;;;;;7.30;2.83;;;;;;;9.30;75.47;95450.03;5134259;27;20448;-55
2024/01/17 08:58:51;;;;;;;4.13;3.93;;;;;;;9.40;77.01;95466.75;5133624;27;20836;-56
2024/01/17 09:01:20;;;;;;;3.90;3.47;;;;;;;9.36;76.71;95465.66;5134323;27;20463;-56
2024/01/17 09:03:52;;;;;;;2.40;2.00;;;;;;;9.24;76.16;95465.09;5133020;27;20441;-53
2024/01/17 09:06:21;;;;;;;1.73;1.63;;;;;;;9.78;76.17;95464.78;5133465;27;20446;-56
2024/01/17 09:08:50;;;;;;;4.93;1.80;;;;;;;9.90;75.77;95457.41;5132424;27;20431;-56
2024/01/17 09:11:19;;;;;;;6.70;2.33;;;;;;;9.58;74.53;95454.94;5133632;27;20474;-56
2024/01/17 09:13:48;;;;;;;1.40;1.30;;;;;;;9.58;75.63;95461.03;5133520;27;20437;-56
2024/01/17 09:16:18;;;;;;;12.10;5.20;;;;;;;9.63;75.25;95470.03;5133894;27;20453;-55
2024/01/17 09:18:46;;;;;;;2.63;1.83;;;;;;;9.47;74.54;95387.94;5133472;27;20445;-55
2024/01/17 09:21:16;;;;;;;3.77;1.63;;;;;;;9.44;73.80;95382.38;5133967;27;20450;-55
2024/01/17 09:23:45;;;;;;;0.83;0.83;;;;;;;9.69;75.21;95461.84;5133857;27;20481;-55
2024/01/17 09:26:13;;;;;;;0.97;0.97;;;;;;;9.66;75.04;95461.56;5133311;27;20972;-55
2024/01/17 09:28:42;;;;;;;3.70;1.50;;;;;;;9.64;76.30;95467.09;5133805;27;20436;-55
2024/01/17 09:31:11;;;;;;;1.37;1.27;;;;;;;9.60;75.12;95458.09;5132215;27;20481;-55
2024/01/17 09:33:41;;;;;;;1.47;1.37;;;;;;;9.74;75.09;95456.56;5133608;27;20493;-56
2024/01/17 09:36:10;;;;;;;2.90;2.20;;;;;;;9.41;75.76;95451.69;5133236;27;20447;-56
2024/01/17 09:38:39;;;;;;;15.23;2.10;;;;;;;9.35;76.28;95463.28;5133404;27;20569;-55
2024/01/17 09:41:09;;;;;;;1.73;0.80;;;;;;;9.44;75.45;95456.44;5133097;27;20818;-55
2024/01/17 09:43:37;;;;;;;0.87;0.73;;;;;;;9.21;75.84;95402.13;5133660;27;20434;-55
2024/01/17 09:46:12;;;;;;;2.50;1.97;;;;;;;9.54;75.53;95451.19;5133199;27;20532;-55
2024/01/17 09:48:42;;;;;;;2.73;2.50;;;;;;;9.61;75.86;95446.47;5133410;27;20437;-55
2024/01/17 09:51:16;;;;;;;5.30;2.87;;;;;;;9.84;75.64;95451.28;5132791;27;20842;-56
2024/01/17 09:53:47;;;;;;;1.13;1.13;;;;;;;9.91;73.52;95457.16;5132736;27;20481;-55
2024/01/17 09:56:21;;;;;;;5.03;2.07;;;;;;;9.82;75.17;95457.91;5133205;27;21005;-55
2024/01/17 09:58:54;;;;;;;16.60;2.60;;;;;;;9.57;74.39;95408.34;5133241;27;20529;-56
2024/01/17 10:01:24;;;;;;;4.93;1.80;;;;;;;9.87;74.94;95457.91;5133084;27;20438;-56
2024/01/17 10:03:58;;;;;;;1.93;1.83;;;;;;;9.87;75.11;95449.97;5132861;27;20791;-55
2024/01/17 10:06:28;;;;;;;2.47;2.27;;;;;;;9.95;75.33;95452.91;5133215;27;20442;-56
2024/01/17 10:08:58;;;;;;;1.57;1.47;;;;;;;10.13;73.90;95449.81;5127327;27;20837;-57
2024/01/17 10:11:27;;;;;;;9.10;3.27;;;;;;;10.29;74.41;95444.53;5119810;27;20474;-57
2024/01/17 10:13:56;;;;;;;2.70;2.60;;;;;;;10.05;73.41;95447.66;5132721;27;20442;-57
2024/01/17 10:16:27;;;;;;;6.03;3.63;;;;;;;10.26;73.53;95437.91;5132612;27;20442;-57
2024/01/17 10:18:58;;;;;;;5.73;4.53;;;;;;;9.98;73.72;95377.47;5127205;27;20430;-55
2024/01/17 10:21:27;;;;;;;7.17;2.20;;;;;;;10.42;72.01;95425.47;5132263;27;20492;-56
2024/01/17 10:23:55;;;;;;;6.60;3.03;;;;;;;10.32;72.07;95393.69;5132347;27;20458;-56
2024/01/17 10:26:25;;;;;;;2.57;2.47;;;;;;;10.65;72.13;95414.34;5132547;27;20443;-56
2024/01/17 10:28:54;;;;;;;2.83;2.70;;;;;;;10.88;69.55;95412.97;5132139;27;20445;-56
2024/01/17 10:31:23;;;;;;;1.77;1.53;;;;;;;10.63;70.24;95403.97;5132830;27;20836;-56
2024/01/17 10:33:53;;;;;;;7.97;2.03;;;;;;;10.44;70.86;95389.69;5131775;27;20525;-56
2024/01/17 10:36:24;;;;;;;4.00;2.77;;;;;;;10.75;70.50;95401.06;5131686;27;21129;-55
2024/01/17 10:38:53;;;;;;;6.20;4.23;;;;;;;10.46;71.52;95407.97;5132058;27;20804;-56
2024/01/17 10:41:21;;;;;;;2.90;2.73;;;;;;;10.59;70.48;95386.22;5131122;27;20442;-56
2024/01/17 10:43:54;;;;;;;1.53;1.43;;;;;;;10.18;70.54;95341.22;5132364;27;20513;-56
2024/01/17 10:46:23;;;;;;;3.80;2.67;;;;;;;10.41;71.16;95376.19;5132203;27;20480;-56
2024/01/17 10:48:52;;;;;;;7.23;2.27;;;;;;;10.40;71.84;95374.59;5131757;27;20441;-56
2024/01/17 10:51:24;;;;;;;3.43;2.60;;;;;;;10.29;72.39;95367.72;5114722;27;20471;-56
2024/01/17 10:53:55;;;;;;;4.10;1.83;;;;;;;10.14;71.35;95369.28;5111200;28;20998;-57
2024/01/17 10:56:29;;;;;;;3.93;2.33;;;;;;;10.30;71.65;95364.78;5111823;28;20436;-57
2024/01/17 10:59:00;;;;;;;1.77;1.60;;;;;;;10.46;70.84;95373.53;5104310;28;20527;-56
2024/01/17 11:01:35;;;;;;;1.63;1.53;;;;;;;10.72;69.58;95361.84;5114892;28;20551;-56
2024/01/17 11:04:08;;;;;;;3.43;3.23;;;;;;;10.70;69.60;95351.47;5112103;28;20481;-56
2024/01/17 11:06:39;;;;;;;1.93;1.83;;;;;;;10.59;69.37;95336.69;5111743;28;20439;-57
2024/01/17 11:09:10;;;;;;;2.77;2.63;;;;;;;10.60;69.28;95340.91;5111948;28;20451;-56
2024/01/17 11:11:40;;;;;;;2.43;2.33;;;;;;;10.89;68.86;95366.81;5111840;28;20547;-56
2024/01/17 11:14:11;;;;;;;1.63;1.53;;;;;;;10.59;68.84;95315.47;5125739;28;20430;-56
2024/01/17 11:16:46;;;;;;;2.00;1.90;;;;;;;10.70;69.27;95338.22;5132453;27;20443;-56
2024/01/17 11:19:16;;;;;;;4.87;1.80;;;;;;;10.57;69.68;95320.25;5131952;27;20434;-56
2024/01/17 11:21:47;;;;;;;1.67;1.53;;;;;;;10.61;68.73;95307.25;5132101;27;20434;-56
2024/01/17 11:24:28;;;;;;;1.83;1.73;;;;;;;10.68;69.14;95307.75;5131341;28;20959;-56
2024/01/17 11:27:01;;;;;;;0.70;0.70;;;;;;;10.85;70.22;95303.72;5123217;28;20517;-56
2024/01/17 11:29:34;;;;;;;3.23;1.73;;;;;;;10.79;69.96;95285.47;5131302;27;20434;-57
2024/01/17 11:32:14;;;;;;;1.60;1.50;;;;;;;11.01;68.55;95299.16;5130893;28;20553;-57
2024/01/17 11:34:43;;;;;;;1.50;1.40;;;;;;;10.73;69.69;95230.88;5131553;28;20446;-56
2024/01/17 11:37:29;;;;;;;2.57;2.47;;;;;;;11.18;67.72;95277.59;5131179;27;20431;-57
2024/01/17 11:39:58;;;;;;;4.13;1.53;;;;;;;10.66;67.57;95204.66;5131016;27;21237;-57
2024/01/17 11:42:27;;;;;;;2.00;1.30;;;;;;;11.00;67.91;95243.75;5131400;28;20445;-56
2024/01/17 11:44:56;;;;;;;1.77;1.67;;;;;;;11.27;67.04;95284.72;5131268;27;21105;-57
2024/01/17 11:47:41;;;;;;;5.47;1.43;;;;;;;11.28;67.79;95275.66;5131009;28;20445;-56
2024/01/17 11:50:10;;;;;;;2.23;2.13;;;;;;;11.31;68.07;95272.47;5131296;28;20796;-56